AirNav   Air Wisconsin Up To $57,000 Bonus
 
 837 users online  

4TX2 Stage Coach Hills Airport
Westlake, Texas, USA

GOING TO WESTLAKE?


FAA INFORMATION EFFECTIVE 07 NOVEMBER 2019

Location

FAA Identifier: 4TX2
Lat/Long: 32-58-00.4490N 097-14-01.0530W
32-58.007483N 097-14.017550W
32.9667914,-97.2336258
(estimated)
Elevation: 684 ft. / 208 m (estimated)
Variation: 07E (1985)
From city: 2 miles SW of WESTLAKE, TX
Time zone: UTC -6 (UTC -5 during Daylight Saving Time)
Zip code: 76262

Airport Operations

Airport use: Private use. Permission required prior to landing
Activation date: 07/1973
Control tower: no
ARTCC: FORT WORTH CENTER
FSS: FORT WORTH FLIGHT SERVICE STATION
Attendance: UNATNDD
Wind indicator: yes
Segmented circle: yes

Airport Communications

WX ASOS at AFW (5 nm W): PHONE 817-491-6188
WX ASOS at DFW (11 nm SE): PHONE 972-615-2608
WX ASOS at FTW (11 nm SW): PHONE 817-740-3346
WX ASOS at DTO (14 nm N): 119.325 (940-383-8457)
WX AWOS-3P at GPM (19 nm SE): 118.475 (972-606-1433)
WX ASOS at GKY (19 nm S): 127.375 (817-557-0251)
WX AWOS-3 at ADS (20 nm E): PHONE 972-386-4855

Nearby radio navigation aids

VOR radial/distance  VOR name  Freq  Var
FUZr324/5.4RANGER VORTAC115.7006E
TTTr295/11.4MAVERICK VOR/DME113.1006E
CVEr279/17.2COWBOY VOR/DME116.2006E

 
NDB name  Hdg/Dist  Freq  Var  ID
MUFIN050/8.336508EFT ..-. -
MESQUITE282/36.724803EPQF .--. --.- ..-.

Airport Services

Airframe service: NONE
Powerplant service: NONE

Runway Information

Runway 17/35

Dimensions: 2700 x 90 ft. / 823 x 27 m
Surface: turf
RUNWAY 17  RUNWAY 35
Traffic pattern: rightleft

Airport Ownership and Management from official FAA records

Ownership: Privately-owned
Owner: STEVE THORNTON
13187 THORTON DRIVE
ROANOKE, TX 76262
Phone (817) 995-9647
Manager: J. L. HASKINS
5920 STEVE COURT
WESTLAKE , TX 76262
Phone 817-430-1987

Airport Operational Statistics

Aircraft based on the field: 17
Single engine airplanes: 16
Multi engine airplanes: 1
    

Additional Remarks

TREES ALONG WESTERN EDGE OF RY.
FOR CD CTC REGIONAL APCH AT 972-615-2799.

Instrument Procedures

There are no published instrument procedures at 4TX2.

Some nearby airports with instrument procedures:

KAFW - Fort Worth Alliance Airport (5 nm W)
KDFW - Dallas-Fort Worth International Airport (11 nm SE)
KFTW - Fort Worth Meacham International Airport (11 nm SW)
4T2 - Kenneth Copeland Airport (13 nm W)
KDTO - Denton Enterprise Airport (14 nm N)
KNFW - Fort Worth Naval Air Station JRB (Carswell Field) Airport (16 nm SW)
KGPM - Grand Prairie Municipal Airport (19 nm SE)
KGKY - Arlington Municipal Airport (19 nm S)
KADS - Addison Airport (20 nm E)
 
Loc | Ops | Rwys | IFR | FBO | Links
Com | Nav | Svcs | Stats | Notes
Area around 4TX2 (Stage Coach Hills Airport)
 
Road maps at: MapQuest Bing Google
 
Aerial photo
WARNING: Photo may not be current or correct
Aerial photo of 4TX2 (Stage Coach Hills Airport)
Do you have a better or more recent aerial photo of Stage Coach Hills Airport that you would like to share? If so, please send us your photo.

 
Sectional chart

 
Airport distance calculator
Flying to Stage Coach Hills Airport? Find the distance to fly.

From to 4TX2

Sunrise and sunset
Times for 21-Nov-2019
 Local
(UTC-6)
 Zulu
(UTC)
Morning civil twilight06:3912:39
Sunrise07:0613:06
Sunset17:2423:24
Evening civil twilight17:5023:50

Current date and time
Zulu (UTC)  22-Nov-2019 03:57:29
Local (UTC-6)  21-Nov-2019 21:57:29
 
METAR
KAFW 
4nm W 
220353Z 35011KT 10SM OVC008 12/10 A2999 RMK AO2 RAB0255E19 SLP152 P0000 T01170100
KFTW 
10nm SW 
220353Z 33007KT 10SM -RA OVC006 11/11 A2999 RMK AO2 RAB22 SLP151 P0001 T01110106
KDFW 
12nm E 
220353Z 36010KT 9SM -RA OVC006 12/11 A2996 RMK AO2 SLP142 P0000 T01220111
KDTO 
14nm N 
220353Z 01011KT 10SM OVC008 11/08 A3000 RMK AO2 RAB0254E29 SLP156 P0000 T01060083
KNFW 
16nm SW 
220252Z 34011KT 10SM -RA BKN008 OVC018 13/11 A2998 RMK AO2 SLP135 P0001 60002 T01280106 51020 VISNO N $
KGPM 
18nm SE 
220335Z AUTO 34005KT 10SM OVC007 14/14 A2999 RMK AO2 T01420142
KGKY 
19nm S 
220353Z AUTO 33011KT 10SM -RA OVC006 14/12 A2998 RMK AO2 RAB13 SLP147 P0000 T01440122
TAF
KAFW 
4nm W 
212233Z 2122/2218 18015KT P6SM VCSH FEW008 SCT025 BKN050 FM212300 30011KT P6SM VCTS BKN007 OVC012CB FM220400 34013KT P6SM -RA OVC008 FM220800 35015KT P6SM VCSH BKN015 FM221200 34014KT P6SM -SHRA VCTS OVC015CB FM221600 34013KT P6SM BKN025
KFTW 
10nm SW 
212234Z 2122/2218 18011KT P6SM VCSH FEW008 SCT025 BKN050 FM212300 30011KT P6SM VCTS BKN007 OVC011CB FM220400 34013KT P6SM -RA OVC008 FM220800 35015KT P6SM VCSH BKN015 FM221200 34014KT P6SM -SHRA VCTS OVC015CB FM221600 34013KT P6SM BKN025
KDFW 
12nm E 
220003Z 2200/2306 18009KT P6SM VCSH FEW008 SCT025 BKN050 FM220115 32011KT P6SM VCTS BKN007 OVC011CB WS020/19020KT FM220400 34011KT P6SM -DZ OVC006 FM221200 34014KT P6SM -SHRA VCTS OVC015CB FM221600 34016KT P6SM BKN025 FM230400 34010KT P6SM BKN030
KNFW 
16nm SW 
2123/2223 VRB06KT 9999 VCSH OVC045 QNH2986INS BECMG 2201/2203 33008KT 9000 SHRA VCTS BKN007 OVC012CB QNH2990INS TEMPO 2203/2208 3200 +SHRA BR OVC004 FM220800 35009KT 6000 RA BR OVC004 QNH2992INS FM221100 35011KT 9000 SHRA VCTS OVC014CB QNH2995INS TEMPO 2212/2215 VRB15G25KT 1600 +TSRA BR OVC009CB FM221800 35012KT 9999 VCSH OVC024 QNH3006INS FM222200 35012KT 9999 SCT030 QNH3008INS AUTOMATED SENSOR METWATCH 2205 TIL 2212 T24/2123Z T08/2223Z AMD 2348 FN20048
KGKY 
19nm S 
212235Z 2123/2218 18010KT P6SM VCSH FEW008 SCT025 BKN050 FM220045 30011KT P6SM VCTS BKN007 OVC011CB FM220400 34013KT P6SM -RA OVC008 FM220800 35015KT P6SM VCSH BKN015 FM221200 34014KT P6SM -SHRA VCTS OVC015CB FM221600 34013KT P6SM BKN025
NOTAMs
Click for the latest NOTAMs
NOTAMs are issued by the DoD/FAA and will open in a separate window not controlled by AirNav.

 

 
 

Would you like to see your business listed on this page?

 If your business provides an interesting product or service to pilots, flight crews, aircraft, or users of the Stage Coach Hills Airport, you should consider listing it here.  To start the listing process, click on the button below
 
Add a business
 

Other Pages about Stage Coach Hills Airport

Update a link
 
Copyright © AirNav, LLC. All rights reserved. Privacy Policy  Contact